createdAt,value
2023-01-12T00:03:23.408Z,2.60
2023-01-12T00:08:19.978Z,2.58
2023-01-12T00:13:16.569Z,2.60
2023-01-12T00:18:13.727Z,3.02
2023-01-12T00:23:11.718Z,3.02
2023-01-12T00:28:08.225Z,3.46
2023-01-12T00:33:04.957Z,3.27
2023-01-12T00:38:03.150Z,3.24
2023-01-12T00:43:17.882Z,3.16
2023-01-12T00:48:15.005Z,2.75
2023-01-12T00:53:12.353Z,3.30
2023-01-12T00:58:08.899Z,3.47
2023-01-12T01:03:05.477Z,3.17
2023-01-12T01:08:03.681Z,2.97
2023-01-12T01:13:00.966Z,2.72
2023-01-12T01:17:57.510Z,2.55
2023-01-12T01:22:54.159Z,2.38
2023-01-12T01:27:53.758Z,2.02
2023-01-12T01:32:51.029Z,2.22
2023-01-12T01:37:47.620Z,2.25
2023-01-12T01:42:44.142Z,2.51
2023-01-12T01:47:42.708Z,2.65
2023-01-12T01:52:42.413Z,2.59
2023-01-12T01:57:41.930Z,2.33
2023-01-12T02:02:39.099Z,2.54
2023-01-12T02:07:35.895Z,2.28
2023-01-12T02:12:51.187Z,2.33
2023-01-12T02:17:55.946Z,2.02
2023-01-12T02:23:10.440Z,2.43
2023-01-12T02:28:26.520Z,2.60
2023-01-12T02:33:27.714Z,2.55
2023-01-12T02:38:32.780Z,2.38
2023-01-12T02:43:30.418Z,2.32
2023-01-12T02:48:31.467Z,2.41
2023-01-12T02:53:30.177Z,2.17
2023-01-12T02:58:27.213Z,2.24
2023-01-12T03:03:24.651Z,2.40
2023-01-12T03:08:25.328Z,2.33
2023-01-12T03:13:23.810Z,2.23
2023-01-12T03:18:25.479Z,2.41
2023-01-12T03:23:26.357Z,2.64
2023-01-12T03:28:26.539Z,2.58
2023-01-12T03:33:27.437Z,2.39
2023-01-12T03:38:28.470Z,2.22
2023-01-12T03:43:28.782Z,2.50
2023-01-12T03:48:26.464Z,2.43
2023-01-12T03:53:23.232Z,2.61
2023-01-12T03:58:22.383Z,2.07
2023-01-12T04:03:18.932Z,2.28
2023-01-12T04:08:16.265Z,2.77
2023-01-12T04:13:14.286Z,2.73
2023-01-12T04:18:12.479Z,2.91
2023-01-12T04:23:09.370Z,2.84
2023-01-12T04:28:06.449Z,3.21
2023-01-12T04:33:07.447Z,3.01
2023-01-12T04:38:06.162Z,2.96
2023-01-12T04:43:07.793Z,2.91
2023-01-12T04:48:06.144Z,3.14
2023-01-12T04:53:03.622Z,3.16
2023-01-12T04:58:00.934Z,3.01
2023-01-12T05:02:58.845Z,2.73
2023-01-12T05:08:13.731Z,2.80
2023-01-12T05:13:11.045Z,3.16
2023-01-12T05:18:07.636Z,3.39
2023-01-12T05:23:04.278Z,3.41
2023-01-12T05:28:01.056Z,3.48
2023-01-12T05:32:58.436Z,3.40
2023-01-12T05:37:57.903Z,3.44
2023-01-12T05:43:12.645Z,3.41
2023-01-12T05:48:10.680Z,3.27
2023-01-12T05:53:07.447Z,3.47
2023-01-12T05:58:04.141Z,3.69
2023-01-12T06:03:03.551Z,3.68
2023-01-12T06:08:02.311Z,3.74
2023-01-12T06:13:17.137Z,3.74
2023-01-12T06:18:13.865Z,3.84
2023-01-12T06:23:17.497Z,3.72
2023-01-12T06:28:14.473Z,3.60
2023-01-12T06:33:12.796Z,3.82
2023-01-12T06:38:09.506Z,3.89
2023-01-12T06:43:06.993Z,3.66
2023-01-12T06:48:09.936Z,4.11
2023-01-12T06:53:06.888Z,4.28
2023-01-12T06:58:03.706Z,4.33
2023-01-12T07:03:01.128Z,4.44
2023-01-12T07:07:59.203Z,4.36
2023-01-12T07:12:59.494Z,4.37
2023-01-12T07:17:56.619Z,4.43
2023-01-12T07:22:57.734Z,4.26
2023-01-12T07:27:55.056Z,4.15
2023-01-12T07:33:15.099Z,4.22
2023-01-12T07:38:47.287Z,4.27
2023-01-12T07:44:10.964Z,4.35
2023-01-12T07:49:16.352Z,4.44
2023-01-12T07:54:16.158Z,4.58
2023-01-12T07:59:15.063Z,4.57
2023-01-12T08:04:22.163Z,4.55
2023-01-12T08:09:34.197Z,4.59
2023-01-12T08:14:53.508Z,4.32
2023-01-12T08:19:58.832Z,4.40
2023-01-12T08:24:59.383Z,4.27
2023-01-12T08:30:03.341Z,4.43
2023-01-12T08:35:03.173Z,4.56
2023-01-12T08:40:13.747Z,4.62
2023-01-12T08:45:15.015Z,4.73
2023-01-12T08:50:14.413Z,4.71
2023-01-12T08:55:22.521Z,4.62
2023-01-12T09:00:22.856Z,3.99
2023-01-12T09:05:19.740Z,4.18
2023-01-12T09:10:16.788Z,4.33
2023-01-12T09:15:14.320Z,4.35
2023-01-12T09:20:15.380Z,4.48
2023-01-12T09:25:15.373Z,4.56
2023-01-12T09:30:14.280Z,4.73
2023-01-12T09:35:11.650Z,4.76
2023-01-12T09:40:10.446Z,4.66
2023-01-12T09:45:35.062Z,4.84
2023-01-12T09:50:35.150Z,4.88
2023-01-12T09:55:36.745Z,4.84
2023-01-12T10:00:33.507Z,5.01
2023-01-12T10:05:40.309Z,5.14
2023-01-12T10:10:37.405Z,5.14
2023-01-12T10:15:39.573Z,5.02
2023-01-12T10:20:37.537Z,4.87
2023-01-12T10:25:37.833Z,4.78
2023-01-12T10:30:35.677Z,4.91
2023-01-12T10:35:32.648Z,4.83
2023-01-12T10:40:31.248Z,4.74
2023-01-12T10:45:29.712Z,4.73
2023-01-12T10:50:27.806Z,4.69
2023-01-12T10:55:30.281Z,4.58
2023-01-12T11:00:29.245Z,4.78
2023-01-12T11:05:27.340Z,4.86
2023-01-12T11:10:27.194Z,4.73
2023-01-12T11:15:25.319Z,4.80
2023-01-12T11:20:29.008Z,5.00
2023-01-12T11:25:31.918Z,5.06
2023-01-12T11:30:32.892Z,5.05
2023-01-12T11:35:34.241Z,4.97
2023-01-12T11:40:32.448Z,5.09
2023-01-12T11:45:34.415Z,5.05
2023-01-12T11:50:33.450Z,5.12
2023-01-12T11:55:37.826Z,5.24
2023-01-12T12:00:42.730Z,5.12
2023-01-12T12:05:45.650Z,5.19
2023-01-12T12:10:46.503Z,5.05
2023-01-12T12:15:50.416Z,5.08
2023-01-12T12:21:00.120Z,5.18
2023-01-12T12:26:03.204Z,5.35
2023-01-12T12:31:04.189Z,5.36
2023-01-12T12:36:06.570Z,5.24
2023-01-12T12:41:30.206Z,5.33
2023-01-12T12:46:38.137Z,5.39
2023-01-12T12:51:40.209Z,5.47
2023-01-12T12:56:37.784Z,5.52
2023-01-12T13:01:42.952Z,5.54
2023-01-12T13:06:48.394Z,5.52
2023-01-12T13:11:51.417Z,5.67
2023-01-12T13:16:52.720Z,5.44
2023-01-12T13:21:55.846Z,5.52
2023-01-12T13:26:53.369Z,5.46
2023-01-12T13:31:50.635Z,5.35
2023-01-12T13:37:00.848Z,4.80
2023-01-12T13:42:15.750Z,4.89
2023-01-12T13:47:16.131Z,4.52
2023-01-12T13:52:28.310Z,4.16
2023-01-12T13:57:26.733Z,4.13
2023-01-12T14:02:24.024Z,4.30
2023-01-12T14:07:29.264Z,4.32
2023-01-12T14:12:39.734Z,4.49
2023-01-12T14:17:53.230Z,4.52
2023-01-12T14:23:05.483Z,4.33
2023-01-12T14:28:02.672Z,4.00
2023-01-12T14:32:59.504Z,4.35
2023-01-12T14:37:58.689Z,4.46
2023-01-12T14:43:13.774Z,4.64
2023-01-12T14:48:23.848Z,4.42
2023-01-12T14:53:32.490Z,4.39
2023-01-12T14:58:29.093Z,4.57
2023-01-12T15:03:35.178Z,4.33
2023-01-12T15:08:36.808Z,4.11
2023-01-12T15:13:34.289Z,4.03
2023-01-12T15:18:49.538Z,3.99
2023-01-12T15:24:08.988Z,4.33
2023-01-12T15:29:08.910Z,4.60
2023-01-12T15:34:12.893Z,4.44
2023-01-12T15:39:12.629Z,4.02
2023-01-12T15:44:11.424Z,3.71
2023-01-12T15:49:09.976Z,3.60
2023-01-12T15:54:07.884Z,3.51
2023-01-12T15:59:05.320Z,3.30
2023-01-12T16:04:39.824Z,3.32
2023-01-12T16:09:18.914Z,3.16
2023-01-12T16:14:16.287Z,3.05
2023-01-12T16:19:20.767Z,2.85
2023-01-12T16:24:17.395Z,2.99
2023-01-12T16:29:15.491Z,2.67
2023-01-12T16:34:13.358Z,2.54
2023-01-12T16:39:11.745Z,2.66
2023-01-12T16:44:13.170Z,2.51
2023-01-12T16:49:10.000Z,2.65
2023-01-12T16:54:07.324Z,2.72
2023-01-12T16:59:03.941Z,2.78
2023-01-12T17:04:00.721Z,2.80
2023-01-12T17:09:00.853Z,3.18
2023-01-12T17:13:58.688Z,3.18
2023-01-12T17:18:55.368Z,3.07
2023-01-12T17:23:53.712Z,2.95
2023-01-12T17:28:52.821Z,2.67
2023-01-12T17:33:51.495Z,2.54
2023-01-12T17:38:48.252Z,2.28
2023-01-12T17:43:44.988Z,2.65
2023-01-12T17:48:44.874Z,2.83
2023-01-12T17:53:42.140Z,3.10
2023-01-12T17:58:40.540Z,2.94
2023-01-12T18:03:37.339Z,3.03
2023-01-12T18:08:33.943Z,2.85
2023-01-12T18:13:31.220Z,3.00
2023-01-12T18:18:28.125Z,2.91
2023-01-12T18:23:24.730Z,2.84
2023-01-12T18:28:21.496Z,2.93
2023-01-12T18:33:19.887Z,3.15
2023-01-12T18:38:16.707Z,2.72
2023-01-12T18:43:13.453Z,2.75
2023-01-12T18:48:23.757Z,2.87
2023-01-12T18:53:24.425Z,2.86
2023-01-12T18:58:22.057Z,3.02
2023-01-12T19:03:18.707Z,3.19
2023-01-12T19:08:35.604Z,3.30
2023-01-12T19:13:51.155Z,3.04
2023-01-12T19:18:47.875Z,2.99
2023-01-12T19:24:02.772Z,3.02
2023-01-12T19:29:00.035Z,3.11
2023-01-12T19:33:57.106Z,3.34
2023-01-12T19:38:54.213Z,3.18
2023-01-12T19:43:50.867Z,3.14
2023-01-12T19:48:48.192Z,3.17
2023-01-12T19:53:46.917Z,3.10
2023-01-12T19:58:45.880Z,2.95
2023-01-12T20:03:48.407Z,2.87
2023-01-12T20:08:53.906Z,2.68
2023-01-12T20:13:50.684Z,2.66
2023-01-12T20:18:48.153Z,2.65
2023-01-12T20:23:45.476Z,2.65
2023-01-12T20:28:42.090Z,2.60
2023-01-12T20:33:41.650Z,2.55
2023-01-12T20:38:40.641Z,2.83
2023-01-12T20:43:37.999Z,2.65
2023-01-12T20:48:34.822Z,2.47
2023-01-12T20:53:31.516Z,2.50
2023-01-12T20:58:28.315Z,2.49
2023-01-12T21:03:25.606Z,2.45
2023-01-12T21:08:22.240Z,2.65
2023-01-12T21:13:19.468Z,3.05
2023-01-12T21:18:16.419Z,3.20
2023-01-12T21:23:13.703Z,3.27
2023-01-12T21:28:10.584Z,2.92
2023-01-12T21:33:07.390Z,3.12
2023-01-12T21:38:04.249Z,3.12
2023-01-12T21:43:12.746Z,2.81
2023-01-12T21:48:10.218Z,2.87
2023-01-12T21:53:07.084Z,2.83
2023-01-12T21:58:04.422Z,2.70
2023-01-12T22:03:01.031Z,2.74
2023-01-12T22:07:57.551Z,2.74
2023-01-12T22:12:56.290Z,2.67
2023-01-12T22:17:53.600Z,2.79
2023-01-12T22:22:50.247Z,2.95
2023-01-12T22:27:47.004Z,3.29
2023-01-12T22:32:44.142Z,3.24
2023-01-12T22:37:41.619Z,3.07
2023-01-12T22:42:56.499Z,3.25
2023-01-12T22:47:53.275Z,3.24
2023-01-12T22:52:52.267Z,3.35
2023-01-12T22:57:48.988Z,3.47
2023-01-12T23:03:01.591Z,3.58
2023-01-12T23:07:59.518Z,3.59
2023-01-12T23:13:14.115Z,3.55
2023-01-12T23:18:11.255Z,3.45
2023-01-12T23:23:09.193Z,3.47
2023-01-12T23:28:08.532Z,3.68
2023-01-12T23:33:05.926Z,4.05
2023-01-12T23:38:02.892Z,4.23
2023-01-12T23:43:00.922Z,4.06
2023-01-12T23:48:00.462Z,3.71
2023-01-12T23:52:57.151Z,3.57
2023-01-12T23:57:53.712Z,3.39
